sensor_id;sensor_type;location;lat;lon;timestamp;P1;durP1;ratioP1;P2;durP2;ratioP2
65071;SDS011;51663;52.310;17.016;2022-12-05T00:00:20;68.17;;;31.50;;
65071;SDS011;51663;52.310;17.016;2022-12-05T00:03:39;69.73;;;30.17;;
65071;SDS011;51663;52.310;17.016;2022-12-05T00:06:42;69.70;;;30.23;;
65071;SDS011;51663;52.310;17.016;2022-12-05T00:09:44;69.83;;;33.17;;
65071;SDS011;51663;52.310;17.016;2022-12-05T00:12:46;70.67;;;30.60;;
65071;SDS011;51663;52.310;17.016;2022-12-05T00:15:48;67.90;;;32.13;;
65071;SDS011;51663;52.310;17.016;2022-12-05T00:18:51;69.10;;;31.17;;
65071;SDS011;51663;52.310;17.016;2022-12-05T00:21:53;71.50;;;32.93;;
65071;SDS011;51663;52.310;17.016;2022-12-05T00:24:57;67.13;;;30.97;;
65071;SDS011;51663;52.310;17.016;2022-12-05T00:27:59;60.10;;;28.30;;
65071;SDS011;51663;52.310;17.016;2022-12-05T00:31:03;69.47;;;31.53;;
65071;SDS011;51663;52.310;17.016;2022-12-05T00:34:07;67.40;;;30.30;;
65071;SDS011;51663;52.310;17.016;2022-12-05T00:37:09;62.47;;;29.47;;
65071;SDS011;51663;52.310;17.016;2022-12-05T00:40:11;70.77;;;31.30;;
65071;SDS011;51663;52.310;17.016;2022-12-05T00:43:13;71.57;;;31.43;;
65071;SDS011;51663;52.310;17.016;2022-12-05T00:46:16;68.07;;;29.67;;
65071;SDS011;51663;52.310;17.016;2022-12-05T00:49:20;69.20;;;32.20;;
65071;SDS011;51663;52.310;17.016;2022-12-05T00:52:22;66.70;;;31.03;;
65071;SDS011;51663;52.310;17.016;2022-12-05T00:55:24;64.63;;;30.97;;
65071;SDS011;51663;52.310;17.016;2022-12-05T00:58:26;65.97;;;30.50;;
65071;SDS011;51663;52.310;17.016;2022-12-05T01:01:32;67.93;;;32.23;;
65071;SDS011;51663;52.310;17.016;2022-12-05T01:04:36;69.83;;;29.30;;
65071;SDS011;51663;52.310;17.016;2022-12-05T01:07:38;61.50;;;29.87;;
65071;SDS011;51663;52.310;17.016;2022-12-05T01:10:40;64.43;;;29.63;;
65071;SDS011;51663;52.310;17.016;2022-12-05T01:13:43;64.80;;;29.07;;
65071;SDS011;51663;52.310;17.016;2022-12-05T01:16:46;58.17;;;27.47;;
65071;SDS011;51663;52.310;17.016;2022-12-05T01:19:49;63.00;;;28.40;;
65071;SDS011;51663;52.310;17.016;2022-12-05T01:22:51;63.20;;;29.50;;
65071;SDS011;51663;52.310;17.016;2022-12-05T01:25:53;62.07;;;29.43;;
65071;SDS011;51663;52.310;17.016;2022-12-05T01:28:55;63.40;;;27.73;;
65071;SDS011;51663;52.310;17.016;2022-12-05T01:31:57;60.87;;;27.50;;
65071;SDS011;51663;52.310;17.016;2022-12-05T01:35:00;62.90;;;30.07;;
65071;SDS011;51663;52.310;17.016;2022-12-05T01:38:02;67.80;;;31.57;;
65071;SDS011;51663;52.310;17.016;2022-12-05T01:41:05;61.53;;;29.90;;
65071;SDS011;51663;52.310;17.016;2022-12-05T01:47:14;72.80;;;32.97;;
65071;SDS011;51663;52.310;17.016;2022-12-05T01:50:18;68.77;;;31.07;;
65071;SDS011;51663;52.310;17.016;2022-12-05T01:53:20;62.90;;;29.80;;
65071;SDS011;51663;52.310;17.016;2022-12-05T01:56:26;64.93;;;29.00;;
65071;SDS011;51663;52.310;17.016;2022-12-05T01:59:29;64.30;;;28.83;;
65071;SDS011;51663;52.310;17.016;2022-12-05T02:02:34;64.77;;;29.27;;
65071;SDS011;51663;52.310;17.016;2022-12-05T02:05:37;63.53;;;29.07;;
65071;SDS011;51663;52.310;17.016;2022-12-05T02:08:39;62.33;;;29.47;;
65071;SDS011;51663;52.310;17.016;2022-12-05T02:11:47;59.03;;;27.63;;
65071;SDS011;51663;52.310;17.016;2022-12-05T02:21:51;61.03;;;28.60;;
65071;SDS011;51663;52.310;17.016;2022-12-05T02:25:17;66.47;;;30.57;;
65071;SDS011;51663;52.310;17.016;2022-12-05T02:34:57;62.47;;;30.03;;
65071;SDS011;51663;52.310;17.016;2022-12-05T02:38:12;56.33;;;27.53;;
65071;SDS011;51663;52.310;17.016;2022-12-05T02:41:26;62.60;;;28.20;;
65071;SDS011;51663;52.310;17.016;2022-12-05T02:44:37;59.23;;;29.70;;
65071;SDS011;51663;52.310;17.016;2022-12-05T02:47:53;62.00;;;27.47;;
65071;SDS011;51663;52.310;17.016;2022-12-05T02:50:55;60.83;;;29.73;;
65071;SDS011;51663;52.310;17.016;2022-12-05T02:54:01;62.43;;;29.30;;
65071;SDS011;51663;52.310;17.016;2022-12-05T02:57:07;62.40;;;29.83;;
65071;SDS011;51663;52.310;17.016;2022-12-05T03:00:12;63.50;;;28.93;;
65071;SDS011;51663;52.310;17.016;2022-12-05T03:03:16;66.50;;;29.23;;
65071;SDS011;51663;52.310;17.016;2022-12-05T03:06:21;63.10;;;28.60;;
65071;SDS011;51663;52.310;17.016;2022-12-05T03:09:36;60.93;;;27.43;;
65071;SDS011;51663;52.310;17.016;2022-12-05T03:12:44;65.10;;;29.07;;
65071;SDS011;51663;52.310;17.016;2022-12-05T03:15:52;60.57;;;27.80;;
65071;SDS011;51663;52.310;17.016;2022-12-05T03:19:00;58.00;;;27.17;;
65071;SDS011;51663;52.310;17.016;2022-12-05T03:22:23;60.33;;;28.53;;
65071;SDS011;51663;52.310;17.016;2022-12-05T03:32:23;70.03;;;30.90;;
65071;SDS011;51663;52.310;17.016;2022-12-05T03:36:01;70.03;;;31.47;;
65071;SDS011;51663;52.310;17.016;2022-12-05T03:39:20;67.90;;;30.03;;
65071;SDS011;51663;52.310;17.016;2022-12-05T03:42:27;70.00;;;29.40;;
65071;SDS011;51663;52.310;17.016;2022-12-05T03:45:36;65.13;;;28.10;;
65071;SDS011;51663;52.310;17.016;2022-12-05T03:48:52;59.90;;;28.77;;
65071;SDS011;51663;52.310;17.016;2022-12-05T03:52:16;64.20;;;27.87;;
65071;SDS011;51663;52.310;17.016;2022-12-05T03:55:27;64.53;;;28.60;;
65071;SDS011;51663;52.310;17.016;2022-12-05T03:58:34;58.30;;;28.17;;
65071;SDS011;51663;52.310;17.016;2022-12-05T04:01:41;59.13;;;27.23;;
65071;SDS011;51663;52.310;17.016;2022-12-05T04:04:47;61.97;;;27.90;;
65071;SDS011;51663;52.310;17.016;2022-12-05T04:07:56;63.97;;;28.27;;
65071;SDS011;51663;52.310;17.016;2022-12-05T04:11:10;63.03;;;29.03;;
65071;SDS011;51663;52.310;17.016;2022-12-05T04:14:17;61.83;;;28.17;;
65071;SDS011;51663;52.310;17.016;2022-12-05T04:17:45;59.43;;;27.13;;
65071;SDS011;51663;52.310;17.016;2022-12-05T04:20:59;61.67;;;30.10;;
65071;SDS011;51663;52.310;17.016;2022-12-05T04:24:27;63.30;;;29.30;;
65071;SDS011;51663;52.310;17.016;2022-12-05T04:27:53;60.43;;;27.10;;
65071;SDS011;51663;52.310;17.016;2022-12-05T04:31:10;71.67;;;31.03;;
65071;SDS011;51663;52.310;17.016;2022-12-05T04:34:24;65.40;;;30.50;;
65071;SDS011;51663;52.310;17.016;2022-12-05T04:37:30;61.63;;;28.70;;
65071;SDS011;51663;52.310;17.016;2022-12-05T04:40:38;73.80;;;32.73;;
65071;SDS011;51663;52.310;17.016;2022-12-05T04:43:47;72.60;;;31.13;;
65071;SDS011;51663;52.310;17.016;2022-12-05T04:46:52;70.57;;;30.60;;
65071;SDS011;51663;52.310;17.016;2022-12-05T04:49:56;68.83;;;32.30;;
65071;SDS011;51663;52.310;17.016;2022-12-05T04:53:00;67.33;;;30.07;;
65071;SDS011;51663;52.310;17.016;2022-12-05T04:56:04;69.57;;;32.43;;
65071;SDS011;51663;52.310;17.016;2022-12-05T04:59:06;68.67;;;29.70;;
65071;SDS011;51663;52.310;17.016;2022-12-05T05:02:09;72.90;;;32.03;;
65071;SDS011;51663;52.310;17.016;2022-12-05T05:05:15;67.73;;;30.40;;
65071;SDS011;51663;52.310;17.016;2022-12-05T05:08:26;68.23;;;30.07;;
65071;SDS011;51663;52.310;17.016;2022-12-05T05:11:33;70.57;;;30.90;;
65071;SDS011;51663;52.310;17.016;2022-12-05T05:14:38;68.03;;;31.10;;
65071;SDS011;51663;52.310;17.016;2022-12-05T05:17:40;69.93;;;31.43;;
65071;SDS011;51663;52.310;17.016;2022-12-05T05:20:45;64.20;;;29.60;;
65071;SDS011;51663;52.310;17.016;2022-12-05T05:23:47;66.67;;;31.07;;
65071;SDS011;51663;52.310;17.016;2022-12-05T05:26:49;70.33;;;31.30;;
65071;SDS011;51663;52.310;17.016;2022-12-05T05:29:57;60.67;;;30.07;;
65071;SDS011;51663;52.310;17.016;2022-12-05T05:33:00;69.77;;;31.53;;
65071;SDS011;51663;52.310;17.016;2022-12-05T05:36:05;70.60;;;32.40;;
65071;SDS011;51663;52.310;17.016;2022-12-05T05:39:13;65.30;;;30.10;;
65071;SDS011;51663;52.310;17.016;2022-12-05T05:42:18;70.77;;;31.70;;
65071;SDS011;51663;52.310;17.016;2022-12-05T05:45:20;62.77;;;30.13;;
65071;SDS011;51663;52.310;17.016;2022-12-05T05:48:22;64.80;;;30.00;;
65071;SDS011;51663;52.310;17.016;2022-12-05T05:51:25;79.70;;;34.63;;
65071;SDS011;51663;52.310;17.016;2022-12-05T05:54:32;63.67;;;29.67;;
65071;SDS011;51663;52.310;17.016;2022-12-05T05:57:34;62.00;;;29.90;;
65071;SDS011;51663;52.310;17.016;2022-12-05T06:00:37;66.07;;;29.63;;
65071;SDS011;51663;52.310;17.016;2022-12-05T06:03:39;70.67;;;32.27;;
65071;SDS011;51663;52.310;17.016;2022-12-05T06:06:41;70.00;;;32.33;;
65071;SDS011;51663;52.310;17.016;2022-12-05T06:09:43;67.70;;;31.50;;
65071;SDS011;51663;52.310;17.016;2022-12-05T06:12:45;63.63;;;29.07;;
65071;SDS011;51663;52.310;17.016;2022-12-05T06:15:47;63.17;;;31.97;;
65071;SDS011;51663;52.310;17.016;2022-12-05T06:18:50;57.50;;;28.93;;
65071;SDS011;51663;52.310;17.016;2022-12-05T06:21:52;61.63;;;29.77;;
65071;SDS011;51663;52.310;17.016;2022-12-05T06:24:54;61.53;;;28.37;;
65071;SDS011;51663;52.310;17.016;2022-12-05T06:27:56;68.67;;;31.50;;
65071;SDS011;51663;52.310;17.016;2022-12-05T06:30:58;59.70;;;29.13;;
65071;SDS011;51663;52.310;17.016;2022-12-05T06:34:00;59.17;;;29.80;;
65071;SDS011;51663;52.310;17.016;2022-12-05T06:37:04;63.27;;;29.57;;
65071;SDS011;51663;52.310;17.016;2022-12-05T06:40:06;61.80;;;29.03;;
65071;SDS011;51663;52.310;17.016;2022-12-05T06:43:12;57.33;;;29.83;;
65071;SDS011;51663;52.310;17.016;2022-12-05T06:46:16;55.43;;;29.00;;
65071;SDS011;51663;52.310;17.016;2022-12-05T06:49:18;63.20;;;30.70;;
65071;SDS011;51663;52.310;17.016;2022-12-05T06:52:23;57.57;;;28.63;;
65071;SDS011;51663;52.310;17.016;2022-12-05T06:55:25;58.60;;;31.30;;
65071;SDS011;51663;52.310;17.016;2022-12-05T06:58:27;53.07;;;28.13;;
65071;SDS011;51663;52.310;17.016;2022-12-05T07:01:30;52.97;;;26.50;;
65071;SDS011;51663;52.310;17.016;2022-12-05T07:04:39;57.17;;;29.57;;
65071;SDS011;51663;52.310;17.016;2022-12-05T07:07:41;61.07;;;31.30;;
65071;SDS011;51663;52.310;17.016;2022-12-05T07:10:49;54.03;;;28.17;;
65071;SDS011;51663;52.310;17.016;2022-12-05T07:13:52;54.53;;;27.30;;
65071;SDS011;51663;52.310;17.016;2022-12-05T07:16:54;52.43;;;27.93;;
65071;SDS011;51663;52.310;17.016;2022-12-05T07:19:56;51.77;;;27.07;;
65071;SDS011;51663;52.310;17.016;2022-12-05T07:22:59;59.30;;;28.90;;
65071;SDS011;51663;52.310;17.016;2022-12-05T07:26:04;62.27;;;30.63;;
65071;SDS011;51663;52.310;17.016;2022-12-05T07:29:10;71.20;;;31.03;;
65071;SDS011;51663;52.310;17.016;2022-12-05T07:32:12;62.97;;;30.33;;
65071;SDS011;51663;52.310;17.016;2022-12-05T07:35:15;58.57;;;28.40;;
65071;SDS011;51663;52.310;17.016;2022-12-05T07:38:16;54.87;;;28.93;;
65071;SDS011;51663;52.310;17.016;2022-12-05T07:41:20;57.23;;;28.60;;
65071;SDS011;51663;52.310;17.016;2022-12-05T07:44:23;51.33;;;26.10;;
65071;SDS011;51663;52.310;17.016;2022-12-05T07:47:27;56.83;;;28.47;;
65071;SDS011;51663;52.310;17.016;2022-12-05T07:50:31;54.93;;;27.67;;
65071;SDS011;51663;52.310;17.016;2022-12-05T07:53:33;54.97;;;28.70;;
65071;SDS011;51663;52.310;17.016;2022-12-05T07:56:35;53.77;;;26.00;;
65071;SDS011;51663;52.310;17.016;2022-12-05T07:59:37;57.47;;;27.97;;
65071;SDS011;51663;52.310;17.016;2022-12-05T08:02:40;58.77;;;29.33;;
65071;SDS011;51663;52.310;17.016;2022-12-05T08:05:42;51.87;;;27.13;;
65071;SDS011;51663;52.310;17.016;2022-12-05T08:08:44;48.97;;;25.30;;
65071;SDS011;51663;52.310;17.016;2022-12-05T08:11:50;52.60;;;26.83;;
65071;SDS011;51663;52.310;17.016;2022-12-05T08:14:53;51.10;;;26.53;;
65071;SDS011;51663;52.310;17.016;2022-12-05T08:17:56;49.23;;;25.60;;
65071;SDS011;51663;52.310;17.016;2022-12-05T08:21:02;50.63;;;25.60;;
65071;SDS011;51663;52.310;17.016;2022-12-05T08:24:06;50.50;;;26.17;;
65071;SDS011;51663;52.310;17.016;2022-12-05T08:27:08;51.73;;;26.33;;
65071;SDS011;51663;52.310;17.016;2022-12-05T08:30:11;54.33;;;27.47;;
65071;SDS011;51663;52.310;17.016;2022-12-05T08:33:13;54.43;;;26.67;;
65071;SDS011;51663;52.310;17.016;2022-12-05T08:36:15;46.20;;;24.87;;
65071;SDS011;51663;52.310;17.016;2022-12-05T08:39:17;50.67;;;26.37;;
65071;SDS011;51663;52.310;17.016;2022-12-05T08:42:20;50.50;;;25.53;;
65071;SDS011;51663;52.310;17.016;2022-12-05T08:45:22;49.57;;;26.27;;
65071;SDS011;51663;52.310;17.016;2022-12-05T08:48:25;51.40;;;25.33;;
65071;SDS011;51663;52.310;17.016;2022-12-05T08:51:30;56.03;;;28.03;;
65071;SDS011;51663;52.310;17.016;2022-12-05T08:54:32;51.10;;;25.17;;
65071;SDS011;51663;52.310;17.016;2022-12-05T08:57:34;47.83;;;25.20;;
65071;SDS011;51663;52.310;17.016;2022-12-05T09:00:37;41.80;;;25.10;;
65071;SDS011;51663;52.310;17.016;2022-12-05T09:03:39;44.60;;;25.07;;
65071;SDS011;51663;52.310;17.016;2022-12-05T09:06:48;48.00;;;25.87;;
65071;SDS011;51663;52.310;17.016;2022-12-05T09:09:52;45.43;;;24.10;;
65071;SDS011;51663;52.310;17.016;2022-12-05T09:12:54;51.73;;;25.77;;
65071;SDS011;51663;52.310;17.016;2022-12-05T09:15:56;46.63;;;25.93;;
65071;SDS011;51663;52.310;17.016;2022-12-05T09:18:58;49.30;;;27.57;;
65071;SDS011;51663;52.310;17.016;2022-12-05T09:22:00;47.53;;;25.30;;
65071;SDS011;51663;52.310;17.016;2022-12-05T09:25:02;47.90;;;26.43;;
65071;SDS011;51663;52.310;17.016;2022-12-05T09:28:04;44.23;;;22.70;;
65071;SDS011;51663;52.310;17.016;2022-12-05T09:31:08;48.17;;;24.63;;
65071;SDS011;51663;52.310;17.016;2022-12-05T09:34:14;46.50;;;24.60;;
65071;SDS011;51663;52.310;17.016;2022-12-05T09:37:19;42.33;;;24.13;;
65071;SDS011;51663;52.310;17.016;2022-12-05T09:40:42;44.87;;;25.70;;
65071;SDS011;51663;52.310;17.016;2022-12-05T09:44:01;44.33;;;24.50;;
65071;SDS011;51663;52.310;17.016;2022-12-05T09:50:21;43.33;;;23.93;;
65071;SDS011;51663;52.310;17.016;2022-12-05T09:56:36;45.33;;;26.07;;
65071;SDS011;51663;52.310;17.016;2022-12-05T09:59:39;45.63;;;24.87;;
65071;SDS011;51663;52.310;17.016;2022-12-05T10:06:12;45.33;;;24.83;;
65071;SDS011;51663;52.310;17.016;2022-12-05T10:12:41;45.40;;;24.33;;
65071;SDS011;51663;52.310;17.016;2022-12-05T10:16:00;46.30;;;24.73;;
65071;SDS011;51663;52.310;17.016;2022-12-05T10:19:06;47.30;;;25.63;;
65071;SDS011;51663;52.310;17.016;2022-12-05T10:22:38;44.13;;;24.27;;
65071;SDS011;51663;52.310;17.016;2022-12-05T10:25:49;45.83;;;25.57;;
65071;SDS011;51663;52.310;17.016;2022-12-05T10:28:58;44.63;;;24.93;;
65071;SDS011;51663;52.310;17.016;2022-12-05T10:32:24;41.17;;;24.53;;
65071;SDS011;51663;52.310;17.016;2022-12-05T10:35:33;41.83;;;23.83;;
65071;SDS011;51663;52.310;17.016;2022-12-05T10:38:37;46.13;;;24.97;;
65071;SDS011;51663;52.310;17.016;2022-12-05T10:41:40;45.57;;;24.90;;
65071;SDS011;51663;52.310;17.016;2022-12-05T10:44:42;43.53;;;25.03;;
65071;SDS011;51663;52.310;17.016;2022-12-05T10:47:45;49.47;;;26.70;;
65071;SDS011;51663;52.310;17.016;2022-12-05T10:50:49;52.43;;;27.57;;
65071;SDS011;51663;52.310;17.016;2022-12-05T10:53:52;51.23;;;27.00;;
65071;SDS011;51663;52.310;17.016;2022-12-05T10:56:55;45.53;;;25.17;;
65071;SDS011;51663;52.310;17.016;2022-12-05T11:00:08;47.93;;;25.20;;
65071;SDS011;51663;52.310;17.016;2022-12-05T11:03:27;53.67;;;28.97;;
65071;SDS011;51663;52.310;17.016;2022-12-05T11:06:35;51.47;;;27.20;;
65071;SDS011;51663;52.310;17.016;2022-12-05T11:09:38;44.23;;;24.30;;
65071;SDS011;51663;52.310;17.016;2022-12-05T11:12:48;52.73;;;29.17;;
65071;SDS011;51663;52.310;17.016;2022-12-05T11:15:50;48.63;;;26.37;;
65071;SDS011;51663;52.310;17.016;2022-12-05T11:18:56;42.07;;;24.43;;
65071;SDS011;51663;52.310;17.016;2022-12-05T11:22:37;50.57;;;27.53;;
65071;SDS011;51663;52.310;17.016;2022-12-05T11:25:40;51.63;;;26.30;;
65071;SDS011;51663;52.310;17.016;2022-12-05T11:28:44;56.43;;;28.50;;
65071;SDS011;51663;52.310;17.016;2022-12-05T11:31:50;49.30;;;26.17;;
65071;SDS011;51663;52.310;17.016;2022-12-05T11:34:55;48.77;;;27.03;;
65071;SDS011;51663;52.310;17.016;2022-12-05T11:38:02;51.37;;;27.23;;
65071;SDS011;51663;52.310;17.016;2022-12-05T11:54:27;53.37;;;27.60;;
65071;SDS011;51663;52.310;17.016;2022-12-05T12:01:10;49.20;;;26.63;;
65071;SDS011;51663;52.310;17.016;2022-12-05T12:11:07;47.23;;;25.80;;
65071;SDS011;51663;52.310;17.016;2022-12-05T12:17:43;49.30;;;26.27;;
65071;SDS011;51663;52.310;17.016;2022-12-05T12:31:19;48.97;;;26.03;;
65071;SDS011;51663;52.310;17.016;2022-12-05T12:34:39;51.50;;;26.23;;
65071;SDS011;51663;52.310;17.016;2022-12-05T12:38:04;50.50;;;27.97;;
65071;SDS011;51663;52.310;17.016;2022-12-05T12:41:36;48.03;;;26.43;;
65071;SDS011;51663;52.310;17.016;2022-12-05T12:45:22;51.57;;;27.87;;
65071;SDS011;51663;52.310;17.016;2022-12-05T12:52:22;50.33;;;27.83;;
65071;SDS011;51663;52.310;17.016;2022-12-05T13:02:10;52.00;;;27.77;;
65071;SDS011;51663;52.310;17.016;2022-12-05T13:05:30;57.37;;;28.77;;
65071;SDS011;51663;52.310;17.016;2022-12-05T13:08:43;56.30;;;28.57;;
65071;SDS011;51663;52.310;17.016;2022-12-05T13:11:51;50.67;;;27.40;;
65071;SDS011;51663;52.310;17.016;2022-12-05T13:14:57;57.93;;;29.17;;
65071;SDS011;51663;52.310;17.016;2022-12-05T13:18:02;51.57;;;28.23;;
65071;SDS011;51663;52.310;17.016;2022-12-05T13:21:06;48.10;;;26.83;;
65071;SDS011;51663;52.310;17.016;2022-12-05T13:24:09;53.17;;;27.37;;
65071;SDS011;51663;52.310;17.016;2022-12-05T13:27:14;52.67;;;29.90;;
65071;SDS011;51663;52.310;17.016;2022-12-05T13:30:20;53.03;;;28.80;;
65071;SDS011;51663;52.310;17.016;2022-12-05T13:33:26;52.67;;;29.90;;
65071;SDS011;51663;52.310;17.016;2022-12-05T13:36:38;52.50;;;27.77;;
65071;SDS011;51663;52.310;17.016;2022-12-05T13:39:59;55.97;;;28.63;;
65071;SDS011;51663;52.310;17.016;2022-12-05T13:43:22;50.73;;;27.63;;
65071;SDS011;51663;52.310;17.016;2022-12-05T13:46:33;53.50;;;28.40;;
65071;SDS011;51663;52.310;17.016;2022-12-05T13:49:44;46.37;;;24.97;;
65071;SDS011;51663;52.310;17.016;2022-12-05T13:52:56;50.10;;;28.13;;
65071;SDS011;51663;52.310;17.016;2022-12-05T13:56:04;51.20;;;27.90;;
65071;SDS011;51663;52.310;17.016;2022-12-05T14:03:53;54.90;;;28.83;;
65071;SDS011;51663;52.310;17.016;2022-12-05T14:09:50;54.50;;;29.43;;
65071;SDS011;51663;52.310;17.016;2022-12-05T14:12:57;51.43;;;27.87;;
65071;SDS011;51663;52.310;17.016;2022-12-05T14:26:18;51.47;;;28.57;;
65071;SDS011;51663;52.310;17.016;2022-12-05T14:29:55;55.20;;;29.13;;
65071;SDS011;51663;52.310;17.016;2022-12-05T14:33:10;53.77;;;29.47;;
65071;SDS011;51663;52.310;17.016;2022-12-05T14:36:16;57.47;;;29.97;;
65071;SDS011;51663;52.310;17.016;2022-12-05T14:39:27;58.37;;;31.00;;
65071;SDS011;51663;52.310;17.016;2022-12-05T14:42:40;57.30;;;32.30;;
65071;SDS011;51663;52.310;17.016;2022-12-05T14:45:56;58.13;;;30.40;;
65071;SDS011;51663;52.310;17.016;2022-12-05T14:49:32;55.60;;;29.83;;
65071;SDS011;51663;52.310;17.016;2022-12-05T14:52:39;53.60;;;29.47;;
65071;SDS011;51663;52.310;17.016;2022-12-05T14:55:45;56.00;;;29.87;;
65071;SDS011;51663;52.310;17.016;2022-12-05T15:02:10;55.97;;;30.13;;
65071;SDS011;51663;52.310;17.016;2022-12-05T15:05:28;55.77;;;30.73;;
65071;SDS011;51663;52.310;17.016;2022-12-05T15:08:34;52.30;;;29.47;;
65071;SDS011;51663;52.310;17.016;2022-12-05T15:11:51;86.30;;;46.50;;
65071;SDS011;51663;52.310;17.016;2022-12-05T15:21:32;54.43;;;31.10;;
65071;SDS011;51663;52.310;17.016;2022-12-05T15:24:39;52.00;;;29.63;;
65071;SDS011;51663;52.310;17.016;2022-12-05T15:27:49;56.83;;;31.03;;
65071;SDS011;51663;52.310;17.016;2022-12-05T15:31:02;58.80;;;31.70;;
65071;SDS011;51663;52.310;17.016;2022-12-05T15:34:21;59.43;;;32.97;;
65071;SDS011;51663;52.310;17.016;2022-12-05T15:40:58;58.07;;;31.80;;
65071;SDS011;51663;52.310;17.016;2022-12-05T15:44:00;63.17;;;34.23;;
65071;SDS011;51663;52.310;17.016;2022-12-05T15:47:14;61.83;;;32.80;;
65071;SDS011;51663;52.310;17.016;2022-12-05T15:50:32;60.93;;;31.87;;
65071;SDS011;51663;52.310;17.016;2022-12-05T15:53:39;67.10;;;34.43;;
65071;SDS011;51663;52.310;17.016;2022-12-05T15:56:47;67.17;;;34.63;;
65071;SDS011;51663;52.310;17.016;2022-12-05T15:59:59;66.23;;;34.70;;
65071;SDS011;51663;52.310;17.016;2022-12-05T16:03:11;61.23;;;32.70;;
65071;SDS011;51663;52.310;17.016;2022-12-05T16:06:22;65.50;;;35.10;;
65071;SDS011;51663;52.310;17.016;2022-12-05T16:09:30;63.90;;;32.80;;
65071;SDS011;51663;52.310;17.016;2022-12-05T16:12:34;72.07;;;35.07;;
65071;SDS011;51663;52.310;17.016;2022-12-05T16:15:47;64.83;;;33.97;;
65071;SDS011;51663;52.310;17.016;2022-12-05T16:18:58;70.87;;;33.90;;
65071;SDS011;51663;52.310;17.016;2022-12-05T16:25:21;68.83;;;34.60;;
65071;SDS011;51663;52.310;17.016;2022-12-05T16:28:31;70.57;;;34.37;;
65071;SDS011;51663;52.310;17.016;2022-12-05T16:31:34;66.53;;;34.17;;
65071;SDS011;51663;52.310;17.016;2022-12-05T16:34:36;63.40;;;34.43;;
65071;SDS011;51663;52.310;17.016;2022-12-05T16:37:39;68.97;;;35.33;;
65071;SDS011;51663;52.310;17.016;2022-12-05T16:40:49;66.73;;;33.13;;
65071;SDS011;51663;52.310;17.016;2022-12-05T16:43:59;72.70;;;35.73;;
65071;SDS011;51663;52.310;17.016;2022-12-05T16:47:01;72.50;;;37.43;;
65071;SDS011;51663;52.310;17.016;2022-12-05T16:53:35;70.27;;;35.20;;
65071;SDS011;51663;52.310;17.016;2022-12-05T16:56:38;70.70;;;34.93;;
65071;SDS011;51663;52.310;17.016;2022-12-05T16:59:40;70.00;;;35.13;;
65071;SDS011;51663;52.310;17.016;2022-12-05T17:02:45;70.63;;;34.17;;
65071;SDS011;51663;52.310;17.016;2022-12-05T17:05:47;67.30;;;33.83;;
65071;SDS011;51663;52.310;17.016;2022-12-05T17:08:52;71.13;;;37.37;;
65071;SDS011;51663;52.310;17.016;2022-12-05T17:11:58;70.57;;;35.90;;
65071;SDS011;51663;52.310;17.016;2022-12-05T17:15:03;70.57;;;35.17;;
65071;SDS011;51663;52.310;17.016;2022-12-05T17:18:09;73.77;;;34.67;;
65071;SDS011;51663;52.310;17.016;2022-12-05T17:21:15;69.87;;;34.83;;
65071;SDS011;51663;52.310;17.016;2022-12-05T17:24:19;80.63;;;35.50;;
65071;SDS011;51663;52.310;17.016;2022-12-05T17:27:22;73.47;;;35.97;;
65071;SDS011;51663;52.310;17.016;2022-12-05T17:30:24;73.00;;;35.33;;
65071;SDS011;51663;52.310;17.016;2022-12-05T17:33:26;76.57;;;37.87;;
65071;SDS011;51663;52.310;17.016;2022-12-05T17:36:28;76.43;;;37.27;;
65071;SDS011;51663;52.310;17.016;2022-12-05T17:39:30;73.47;;;37.80;;
65071;SDS011;51663;52.310;17.016;2022-12-05T17:42:32;77.97;;;39.00;;
65071;SDS011;51663;52.310;17.016;2022-12-05T17:45:34;77.07;;;37.67;;
65071;SDS011;51663;52.310;17.016;2022-12-05T17:48:37;85.73;;;40.30;;
65071;SDS011;51663;52.310;17.016;2022-12-05T17:51:40;89.97;;;43.50;;
65071;SDS011;51663;52.310;17.016;2022-12-05T17:55:02;104.70;;;49.07;;
65071;SDS011;51663;52.310;17.016;2022-12-05T17:58:04;93.07;;;47.03;;
65071;SDS011;51663;52.310;17.016;2022-12-05T18:01:06;91.83;;;45.03;;
65071;SDS011;51663;52.310;17.016;2022-12-05T18:04:11;82.50;;;41.70;;
65071;SDS011;51663;52.310;17.016;2022-12-05T18:07:13;78.97;;;40.23;;
65071;SDS011;51663;52.310;17.016;2022-12-05T18:10:16;83.83;;;40.87;;
65071;SDS011;51663;52.310;17.016;2022-12-05T18:13:20;78.97;;;40.90;;
65071;SDS011;51663;52.310;17.016;2022-12-05T18:16:22;84.03;;;42.77;;
65071;SDS011;51663;52.310;17.016;2022-12-05T18:19:24;79.37;;;40.23;;
65071;SDS011;51663;52.310;17.016;2022-12-05T18:22:26;79.40;;;41.60;;
65071;SDS011;51663;52.310;17.016;2022-12-05T18:25:28;82.70;;;41.53;;
65071;SDS011;51663;52.310;17.016;2022-12-05T18:28:33;81.20;;;40.87;;
65071;SDS011;51663;52.310;17.016;2022-12-05T18:31:37;80.20;;;43.10;;
65071;SDS011;51663;52.310;17.016;2022-12-05T18:34:42;82.10;;;42.53;;
65071;SDS011;51663;52.310;17.016;2022-12-05T18:37:44;87.47;;;41.87;;
65071;SDS011;51663;52.310;17.016;2022-12-05T18:40:46;82.73;;;41.13;;
65071;SDS011;51663;52.310;17.016;2022-12-05T18:43:48;77.77;;;39.93;;
65071;SDS011;51663;52.310;17.016;2022-12-05T18:46:51;78.77;;;41.20;;
65071;SDS011;51663;52.310;17.016;2022-12-05T18:49:53;90.67;;;43.43;;
65071;SDS011;51663;52.310;17.016;2022-12-05T18:52:55;84.93;;;43.50;;
65071;SDS011;51663;52.310;17.016;2022-12-05T18:56:02;85.00;;;42.20;;
65071;SDS011;51663;52.310;17.016;2022-12-05T18:59:23;83.47;;;41.83;;
65071;SDS011;51663;52.310;17.016;2022-12-05T19:02:25;85.47;;;43.93;;
65071;SDS011;51663;52.310;17.016;2022-12-05T19:05:29;82.90;;;42.63;;
65071;SDS011;51663;52.310;17.016;2022-12-05T19:08:32;81.77;;;42.40;;
65071;SDS011;51663;52.310;17.016;2022-12-05T19:11:34;80.07;;;41.70;;
65071;SDS011;51663;52.310;17.016;2022-12-05T19:14:36;82.40;;;41.70;;
65071;SDS011;51663;52.310;17.016;2022-12-05T19:17:38;83.90;;;44.03;;
65071;SDS011;51663;52.310;17.016;2022-12-05T19:20:47;84.50;;;41.97;;
65071;SDS011;51663;52.310;17.016;2022-12-05T19:23:52;98.13;;;44.97;;
65071;SDS011;51663;52.310;17.016;2022-12-05T19:26:54;85.40;;;42.97;;
65071;SDS011;51663;52.310;17.016;2022-12-05T19:29:56;81.53;;;43.17;;
65071;SDS011;51663;52.310;17.016;2022-12-05T19:32:59;80.40;;;41.30;;
65071;SDS011;51663;52.310;17.016;2022-12-05T19:36:02;82.97;;;42.50;;
65071;SDS011;51663;52.310;17.016;2022-12-05T19:42:20;77.47;;;40.67;;
65071;SDS011;51663;52.310;17.016;2022-12-05T19:45:21;75.23;;;40.47;;
65071;SDS011;51663;52.310;17.016;2022-12-05T19:48:24;79.50;;;39.60;;
65071;SDS011;51663;52.310;17.016;2022-12-05T19:51:26;79.67;;;41.40;;
65071;SDS011;51663;52.310;17.016;2022-12-05T19:54:29;84.70;;;41.57;;
65071;SDS011;51663;52.310;17.016;2022-12-05T19:57:30;78.10;;;41.37;;
65071;SDS011;51663;52.310;17.016;2022-12-05T20:00:33;78.83;;;40.73;;